Time;durP1;ratioP1;P1;durP2;ratioP2;P2;SDS_P1;SDS_P2;PMS_P1;PMS_P2;Temp;Humidity;BMP_temperature;BMP_pressure;BME280_temperature;BME280_humidity;BME280_pressure;Samples;Min_cycle;Max_cycle;Signal;HPM_P1;HPM_P2
2023/06/01 00:00:55;;;;;;;19.85;8.90;;;;;;;12.18;82.58;102652.88;6107789;19;20024;-77
2023/06/01 00:03:00;;;;;;;20.98;8.63;;;;;;;12.15;82.42;102647.66;6103914;19;20385;-77
2023/06/01 00:05:06;;;;;;;19.88;8.85;;;;;;;12.08;82.43;102647.78;6102797;19;20029;-78
2023/06/01 00:07:12;;;;;;;18.30;8.25;;;;;;;12.09;82.47;102651.28;6083970;19;20013;-78
2023/06/01 00:09:21;;;;;;;15.82;7.45;;;;;;;12.09;81.99;102653.91;6073371;19;20479;-78
2023/06/01 00:11:27;;;;;;;18.25;8.05;;;;;;;12.13;82.19;102654.72;6080378;19;20378;-78
2023/06/01 00:13:34;;;;;;;20.08;8.55;;;;;;;12.17;82.35;102646.72;6102892;19;20426;-78
2023/06/01 00:15:43;;;;;;;17.45;8.48;;;;;;;12.17;81.94;102651.13;6102700;19;20025;-77
2023/06/01 00:17:51;;;;;;;16.77;7.43;;;;;;;12.15;81.71;102648.53;6102613;19;20014;-76
2023/06/01 00:20:00;;;;;;;16.05;7.40;;;;;;;12.10;82.04;102645.09;6103658;19;20014;-79
2023/06/01 00:22:08;;;;;;;17.45;7.20;;;;;;;12.18;81.97;102647.59;6106296;19;20018;-78
2023/06/01 00:24:14;;;;;;;14.98;7.25;;;;;;;12.17;81.87;102652.00;6105986;19;20035;-78
2023/06/01 00:26:29;;;;;;;16.58;7.43;;;;;;;12.12;81.95;102648.59;6106403;19;20010;-78
2023/06/01 00:28:42;;;;;;;13.85;6.85;;;;;;;12.16;81.92;102647.59;6107590;19;20493;-78
2023/06/01 00:30:59;;;;;;;16.17;7.85;;;;;;;12.12;81.58;102651.22;6105136;19;20534;-78
2023/06/01 00:33:07;;;;;;;14.57;7.63;;;;;;;12.09;81.72;102643.38;6109558;19;20035;-78
2023/06/01 00:37:32;;;;;;;18.80;7.97;;;;;;;12.10;81.62;102645.09;6105904;19;20465;-78
2023/06/01 00:39:39;;;;;;;15.90;6.45;;;;;;;12.02;81.50;102637.31;6111961;19;20094;-77
2023/06/01 00:41:44;;;;;;;13.98;6.38;;;;;;;12.04;81.76;102637.31;6112438;19;20485;-78
2023/06/01 00:43:54;;;;;;;13.60;6.25;;;;;;;12.08;81.57;102638.97;6116447;19;20025;-78
2023/06/01 00:46:08;;;;;;;13.85;6.18;;;;;;;12.05;81.71;102631.13;6116904;19;20010;-78
2023/06/01 00:48:15;;;;;;;14.73;6.30;;;;;;;12.08;81.72;102628.44;6115272;19;20002;-78
2023/06/01 00:50:24;;;;;;;15.02;6.88;;;;;;;12.03;81.48;102632.91;6110779;19;20236;-79
2023/06/01 00:52:34;;;;;;;10.65;5.47;;;;;;;12.12;81.48;102627.50;6111514;19;20014;-78
2023/06/01 00:54:40;;;;;;;13.45;5.93;;;;;;;12.12;81.31;102638.03;6114631;19;20010;-78
2023/06/01 00:56:46;;;;;;;13.60;6.32;;;;;;;12.05;81.50;102631.13;6110063;19;20240;-77
2023/06/01 00:58:55;;;;;;;13.63;5.45;;;;;;;12.04;81.85;102635.53;6119638;19;20009;-77
2023/06/01 01:01:03;;;;;;;13.02;6.28;;;;;;;12.08;81.79;102636.34;6116682;19;20000;-78
2023/06/01 01:03:13;;;;;;;13.38;6.05;;;;;;;12.09;81.34;102640.72;6114849;19;20546;-77
2023/06/01 01:05:26;;;;;;;12.95;6.25;;;;;;;12.10;81.38;102642.47;6095531;19;20058;-80
2023/06/01 01:07:48;;;;;;;;;;;;;;;;;;;;;
2023/06/01 01:10:01;;;;;;;15.73;6.72;;;;;;;12.07;81.29;102651.28;6102441;19;20054;-79
2023/06/01 01:12:12;;;;;;;14.50;5.95;;;;;;;12.13;81.24;102638.91;6099355;19;20007;-78
2023/06/01 01:14:32;;;;;;;11.95;6.03;;;;;;;12.08;81.29;102644.25;6079081;19;20035;-77
2023/06/01 01:16:50;;;;;;;12.77;5.28;;;;;;;12.09;81.20;102638.09;6101126;19;20002;-77
2023/06/01 01:19:03;;;;;;;14.35;5.68;;;;;;;12.06;81.13;102641.66;6100946;19;20081;-76
2023/06/01 01:21:28;;;;;;;13.88;6.05;;;;;;;12.03;81.35;102632.91;6099229;19;20380;-78
2023/06/01 01:24:02;;;;;;;12.48;6.00;;;;;;;12.02;81.23;102633.81;6095533;19;20082;-77
2023/06/01 01:26:27;;;;;;;13.25;6.03;;;;;;;12.04;81.10;102629.41;6103625;19;20021;-78
2023/06/01 01:28:51;;;;;;;13.05;5.88;;;;;;;12.10;80.92;102636.31;6100344;19;20038;-78
2023/06/01 01:31:02;;;;;;;16.27;6.50;;;;;;;12.04;80.69;102629.41;6101482;19;20007;-78
2023/06/01 01:33:16;;;;;;;15.35;6.03;;;;;;;12.06;80.81;102636.38;6096730;19;20372;-78
2023/06/01 01:35:23;;;;;;;17.20;6.25;;;;;;;12.09;80.82;102638.09;6102131;19;20010;-77
2023/06/01 01:37:31;;;;;;;17.77;6.43;;;;;;;12.06;80.94;102632.88;6098679;19;20019;-78
2023/06/01 01:39:38;;;;;;;16.10;6.68;;;;;;;12.04;81.04;102637.31;6073478;19;20019;-77
2023/06/01 01:41:47;;;;;;;12.23;5.85;;;;;;;12.08;80.75;102637.25;6102213;19;20487;-78
2023/06/01 01:43:57;;;;;;;15.70;6.10;;;;;;;12.08;80.77;102637.25;6099146;19;20538;-79
2023/06/01 01:46:10;;;;;;;16.67;6.43;;;;;;;12.03;80.69;102635.56;6096955;19;20478;-79
2023/06/01 01:48:24;;;;;;;15.18;6.15;;;;;;;12.04;81.33;102632.91;6100253;19;20491;-79
2023/06/01 01:50:35;;;;;;;14.27;7.13;;;;;;;11.95;81.02;102638.31;6096533;19;20035;-78
2023/06/01 01:52:54;;;;;;;15.60;6.40;;;;;;;11.99;80.87;102626.84;6094716;19;20006;-78
2023/06/01 01:55:01;;;;;;;12.65;6.15;;;;;;;11.93;81.09;102629.59;6095631;19;20006;-78
2023/06/01 01:57:08;;;;;;;13.77;6.15;;;;;;;11.96;81.21;102631.31;6097811;19;20010;-78
2023/06/01 01:59:17;;;;;;;18.05;6.78;;;;;;;11.93;81.16;102629.59;6088427;19;20720;-78
2023/06/01 02:01:23;;;;;;;13.70;6.35;;;;;;;11.90;80.76;102628.75;6100790;19;20094;-78
2023/06/01 02:03:33;;;;;;;13.40;6.82;;;;;;;11.83;80.40;102631.47;6092696;19;20011;-79
2023/06/01 02:05:38;;;;;;;15.18;6.75;;;;;;;11.74;80.72;102631.66;6100210;19;20007;-80
2023/06/01 02:07:47;;;;;;;12.95;5.50;;;;;;;11.72;81.00;102628.16;6100099;19;20039;-82
2023/06/01 02:09:56;;;;;;;14.00;6.22;;;;;;;11.72;80.97;102620.25;6100490;19;20018;-79
2023/06/01 02:12:02;;;;;;;16.70;6.70;;;;;;;11.73;81.10;102622.00;6101240;19;20007;-79
2023/06/01 02:14:08;;;;;;;16.38;7.38;;;;;;;11.75;81.03;102622.84;6096121;19;20011;-77
2023/06/01 02:16:22;;;;;;;13.57;6.40;;;;;;;11.77;80.75;102625.44;6096593;19;20387;-77
2023/06/01 02:18:31;;;;;;;14.40;6.80;;;;;;;11.80;80.96;102625.41;6099025;19;20796;-78
2023/06/01 02:20:41;;;;;;;16.20;7.00;;;;;;;11.75;81.25;102619.34;6102471;19;20010;-78
2023/06/01 02:22:45;;;;;;;15.75;7.32;;;;;;;11.79;81.12;102632.41;6102815;19;20313;-79
2023/06/01 02:24:55;;;;;;;17.52;7.28;;;;;;;11.74;81.18;102618.47;6102442;19;20011;-79
2023/06/01 02:27:05;;;;;;;18.35;6.80;;;;;;;11.75;80.91;102616.72;6098885;19;20732;-79
2023/06/01 02:29:12;;;;;;;17.55;6.80;;;;;;;11.70;81.30;102611.50;6101102;19;20534;-77
2023/06/01 02:31:23;;;;;;;10.75;5.50;;;;;;;11.72;81.28;102606.22;6100407;19;20015;-77
2023/06/01 02:33:34;;;;;;;14.77;6.63;;;;;;;11.73;81.28;102618.50;6081216;19;19999;-77
2023/06/01 02:35:46;;;;;;;14.98;6.65;;;;;;;11.72;81.29;102615.00;6103911;19;20025;-79
2023/06/01 02:37:51;;;;;;;16.88;6.97;;;;;;;11.71;81.35;102617.66;6108001;19;20047;-78
2023/06/01 02:40:00;;;;;;;17.80;7.70;;;;;;;11.69;81.38;102614.16;6110210;19;20508;-80
2023/06/01 02:42:07;;;;;;;15.82;7.05;;;;;;;11.72;81.62;102616.78;6091936;19;20010;-80
2023/06/01 02:44:17;;;;;;;15.15;6.18;;;;;;;11.76;81.52;102611.41;6114725;19;20014;-78
2023/06/01 02:46:33;;;;;;;18.75;6.63;;;;;;;11.74;81.11;102613.22;6110169;19;20007;-78
2023/06/01 02:48:39;;;;;;;14.93;6.07;;;;;;;11.71;81.27;102620.28;6115641;19;20039;-79
2023/06/01 02:50:44;;;;;;;14.50;7.35;;;;;;;11.78;81.48;102614.03;6112687;19;20006;-78
2023/06/01 02:52:55;;;;;;;16.90;6.55;;;;;;;11.80;81.01;102612.22;6104284;19;20455;-78
2023/06/01 02:55:06;;;;;;;14.38;7.13;;;;;;;11.81;80.90;102614.81;6107515;19;20498;-79
2023/06/01 02:57:17;;;;;;;16.63;7.22;;;;;;;11.75;80.99;102612.31;6107170;19;20558;-80
2023/06/01 02:59:22;;;;;;;14.15;6.93;;;;;;;11.70;81.07;102608.88;6109234;19;20011;-80
2023/06/01 03:01:36;;;;;;;16.90;7.90;;;;;;;11.70;80.92;102608.88;6103002;19;20594;-79
2023/06/01 03:03:44;;;;;;;16.33;7.35;;;;;;;11.70;81.06;102608.88;6101991;19;20070;-79
2023/06/01 03:05:50;;;;;;;15.48;6.72;;;;;;;11.71;80.90;102609.75;6101156;19;20082;-79
2023/06/01 03:07:57;;;;;;;14.65;6.93;;;;;;;11.73;80.80;102610.59;6100846;19;20006;-78
2023/06/01 03:10:03;;;;;;;14.23;7.30;;;;;;;11.64;80.96;102606.34;6101033;19;20044;-78
2023/06/01 03:12:13;;;;;;;20.52;7.68;;;;;;;11.64;80.71;102606.34;6098444;19;20554;-79
2023/06/01 03:14:28;;;;;;;17.63;7.05;;;;;;;11.63;80.93;102607.22;6102903;19;20335;-78
2023/06/01 03:16:36;;;;;;;20.60;7.35;;;;;;;11.57;80.95;102612.63;6098551;19;20418;-78
2023/06/01 03:18:46;;;;;;;15.80;6.50;;;;;;;11.57;81.06;102621.38;6080985;19;20375;-78
2023/06/01 03:20:53;;;;;;;14.32;6.97;;;;;;;11.56;81.05;102614.38;6101029;19;20114;-79
2023/06/01 03:23:01;;;;;;;18.13;7.15;;;;;;;11.55;81.59;102617.88;6097215;19;20431;-79
2023/06/01 03:25:08;;;;;;;15.15;6.20;;;;;;;11.56;81.43;102618.78;6101382;19;20011;-79
2023/06/01 03:27:15;;;;;;;14.38;6.38;;;;;;;11.62;80.98;102613.41;6105547;19;20538;-79
2023/06/01 03:29:23;;;;;;;15.25;7.55;;;;;;;11.62;81.12;102613.41;6104310;19;20078;-79
2023/06/01 03:31:42;;;;;;;14.75;7.05;;;;;;;11.60;81.14;102617.81;6104934;19;20029;-78
2023/06/01 03:33:47;;;;;;;16.55;7.68;;;;;;;11.64;81.11;102623.03;6100633;19;20565;-79
2023/06/01 03:35:59;;;;;;;15.82;7.75;;;;;;;11.64;80.71;102619.53;6103788;19;20035;-78
2023/06/01 03:38:04;;;;;;;16.58;6.80;;;;;;;11.53;81.13;102622.34;6103728;19;20063;-79
2023/06/01 03:40:13;;;;;;;14.70;6.40;;;;;;;11.57;81.17;102623.13;6107540;19;20691;-78
2023/06/01 03:42:20;;;;;;;17.00;7.47;;;;;;;11.57;81.29;102625.78;6079457;19;20010;-78
2023/06/01 03:44:25;;;;;;;18.90;6.95;;;;;;;11.62;81.38;102616.03;6108033;19;20010;-80
2023/06/01 03:46:31;;;;;;;18.15;8.13;;;;;;;11.70;80.99;102626.44;6105629;19;20038;-79
2023/06/01 03:48:40;;;;;;;14.98;6.47;;;;;;;11.71;80.83;102615.00;6107510;19;20979;-79
2023/06/01 03:50:47;;;;;;;17.00;7.35;;;;;;;11.61;80.84;102627.44;6110763;19;20015;-79
2023/06/01 03:52:59;;;;;;;16.73;6.90;;;;;;;11.65;81.00;102622.13;6111631;19;20808;-79
2023/06/01 03:55:08;;;;;;;19.23;7.15;;;;;;;11.57;80.61;102618.75;6105787;19;20227;-78
2023/06/01 03:57:15;;;;;;;19.63;7.15;;;;;;;11.57;81.22;102616.09;6112025;19;20035;-80
2023/06/01 03:59:28;;;;;;;20.75;7.65;;;;;;;11.61;80.86;102623.06;6112013;19;20532;-78
2023/06/01 04:01:33;;;;;;;18.05;6.85;;;;;;;11.58;80.71;102622.22;6117216;19;20010;-78
2023/06/01 04:03:43;;;;;;;18.80;6.95;;;;;;;11.56;80.76;102624.91;6119173;19;20013;-79
2023/06/01 04:05:50;;;;;;;15.98;7.03;;;;;;;11.56;80.64;102621.41;6122676;19;20058;-79
2023/06/01 04:07:59;;;;;;;14.25;6.93;;;;;;;11.61;80.98;102622.19;6109948;19;20006;-79
2023/06/01 04:10:04;;;;;;;16.95;6.63;;;;;;;11.61;80.90;102619.53;6107211;19;20017;-78
2023/06/01 04:12:10;;;;;;;15.73;6.95;;;;;;;11.66;81.19;102622.97;6103321;19;20007;-78
2023/06/01 04:14:16;;;;;;;15.52;6.47;;;;;;;11.65;80.79;102622.13;6110007;19;20011;-76
2023/06/01 04:16:26;;;;;;;16.73;6.53;;;;;;;11.67;80.82;102624.72;6104905;19;20016;-80
2023/06/01 04:18:32;;;;;;;21.38;7.18;;;;;;;11.66;80.96;102620.34;6084521;19;20007;-79
2023/06/01 04:20:48;;;;;;;15.20;7.18;;;;;;;11.71;80.46;102618.50;6103743;19;20007;-80
2023/06/01 04:23:00;;;;;;;14.88;5.97;;;;;;;11.64;80.99;102614.25;6105834;19;20005;-78
2023/06/01 04:25:11;;;;;;;19.52;6.18;;;;;;;11.66;80.49;102615.06;6099814;19;20437;-79
2023/06/01 04:27:27;;;;;;;15.43;6.75;;;;;;;11.68;80.50;102623.81;6098536;19;20006;-79
2023/06/01 04:29:48;;;;;;;13.82;6.45;;;;;;;11.72;80.57;102619.41;6089903;19;20014;-78
2023/06/01 04:31:56;;;;;;;16.92;6.63;;;;;;;11.74;80.37;102621.13;6101697;19;20054;-77
2023/06/01 04:34:05;;;;;;;12.75;6.20;;;;;;;11.72;80.32;102615.00;6103480;19;20011;-78
2023/06/01 04:36:23;;;;;;;17.95;6.63;;;;;;;11.74;80.31;102621.13;6085834;19;20336;-78
2023/06/01 04:38:32;;;;;;;18.88;7.63;;;;;;;11.84;80.31;102621.81;6105929;19;20014;-78
2023/06/01 04:40:39;;;;;;;14.35;6.38;;;;;;;11.84;79.37;102622.66;6110761;19;20069;-79
2023/06/01 04:42:51;;;;;;;19.75;6.78;;;;;;;11.85;79.38;102623.56;6112774;19;20011;-79
2023/06/01 04:44:59;;;;;;;16.10;7.43;;;;;;;11.85;79.38;102624.44;6110557;19;20023;-78
2023/06/01 04:47:08;;;;;;;17.33;7.30;;;;;;;11.95;79.25;102624.28;6111250;19;20003;-78
2023/06/01 04:49:18;;;;;;;14.52;6.60;;;;;;;11.96;79.43;102626.03;6107300;19;20006;-77
2023/06/01 04:51:33;;;;;;;17.63;8.65;;;;;;;11.96;79.20;102631.31;6106777;19;20341;-79
2023/06/01 04:53:38;;;;;;;17.25;7.25;;;;;;;11.89;79.35;102629.66;6095357;19;20420;-79
2023/06/01 04:55:44;;;;;;;17.92;7.35;;;;;;;11.94;79.48;102635.72;6103780;19;21597;-79
2023/06/01 04:57:49;;;;;;;16.08;8.32;;;;;;;11.83;79.29;102633.25;6107654;19;20471;-78
2023/06/01 04:59:56;;;;;;;15.25;7.00;;;;;;;11.81;78.76;102633.25;6102565;19;20018;-78
2023/06/01 05:02:07;;;;;;;17.30;6.80;;;;;;;11.83;78.43;102638.53;6108317;19;20031;-79
2023/06/01 05:04:14;;;;;;;21.73;8.65;;;;;;;11.77;78.61;102633.34;6111643;19;20097;-77
2023/06/01 05:06:30;;;;;;;20.88;8.10;;;;;;;11.78;78.62;102635.94;6103695;19;20086;-80
2023/06/01 05:08:37;;;;;;;16.45;7.43;;;;;;;11.85;78.48;102628.84;6091447;19;20051;-78
2023/06/01 05:10:46;;;;;;;16.58;6.90;;;;;;;11.87;78.48;102629.69;6087533;19;20007;-83
2023/06/01 05:12:56;;;;;;;14.60;7.40;;;;;;;11.94;78.61;102627.81;6106410;19;20023;-79
2023/06/01 05:15:08;;;;;;;17.38;7.50;;;;;;;12.00;77.89;102627.72;6105452;19;20006;-79
2023/06/01 05:17:15;;;;;;;19.98;7.72;;;;;;;12.01;77.98;102634.72;6106308;19;20003;-80
2023/06/01 05:19:25;;;;;;;16.02;6.90;;;;;;;12.11;77.98;102631.00;6106950;19;20006;-80
2023/06/01 05:21:47;;;;;;;17.90;7.57;;;;;;;12.08;77.33;102631.06;6104442;19;20039;-80
2023/06/01 05:23:54;;;;;;;16.50;8.15;;;;;;;12.09;77.18;102638.09;6103527;19;20010;-79
2023/06/01 05:26:02;;;;;;;22.10;9.10;;;;;;;12.09;76.86;102630.19;6105693;19;20014;-80
2023/06/01 05:28:08;;;;;;;16.40;7.55;;;;;;;12.13;76.93;102633.63;6107857;19;20586;-77
2023/06/01 05:30:16;;;;;;;17.48;7.20;;;;;;;12.12;76.83;102632.75;6107180;19;20018;-81
2023/06/01 05:32:24;;;;;;;18.67;7.60;;;;;;;12.20;76.75;102632.63;6105799;19;20032;-79
2023/06/01 05:34:29;;;;;;;17.20;7.72;;;;;;;12.25;76.53;102630.78;6112860;19;20024;-80
2023/06/01 05:36:40;;;;;;;16.80;8.63;;;;;;;12.41;76.36;102631.34;6112820;19;20015;-79
2023/06/01 05:38:47;;;;;;;16.42;6.70;;;;;;;12.52;75.79;102629.38;6109940;19;19999;-80
2023/06/01 05:40:53;;;;;;;17.67;7.97;;;;;;;12.42;75.85;102631.31;6109301;19;20011;-80
2023/06/01 05:43:02;;;;;;;16.73;7.00;;;;;;;12.46;75.97;102630.34;6108468;19;20006;-79
2023/06/01 05:45:08;;;;;;;14.90;6.97;;;;;;;12.49;75.89;102638.19;6112717;19;20022;-79
2023/06/01 05:47:18;;;;;;;20.90;8.07;;;;;;;12.46;75.68;102640.91;6110415;19;20084;-79
2023/06/01 05:49:23;;;;;;;17.17;7.05;;;;;;;12.42;75.71;102641.84;6107993;19;20029;-80
2023/06/01 05:51:37;;;;;;;20.23;7.45;;;;;;;12.46;76.04;102632.13;6099695;19;20020;-79
2023/06/01 05:53:45;;;;;;;15.43;7.28;;;;;;;12.58;75.63;102628.38;6100485;19;20058;-80
2023/06/01 05:55:51;;;;;;;19.52;7.20;;;;;;;12.59;75.10;102627.50;6107079;19;20038;-79
2023/06/01 05:58:00;;;;;;;16.25;7.15;;;;;;;12.62;75.21;102640.59;6095783;19;20462;-80
2023/06/01 06:00:12;;;;;;;20.27;8.20;;;;;;;12.61;75.14;102634.47;6110589;19;20338;-80
2023/06/01 06:02:20;;;;;;;21.83;7.45;;;;;;;12.60;75.18;102637.13;6108657;19;20023;-78
2023/06/01 06:04:27;;;;;;;15.73;7.22;;;;;;;12.63;74.91;102634.41;6105621;19;20035;-80
2023/06/01 06:06:33;;;;;;;22.52;8.00;;;;;;;12.59;74.76;102633.63;6108563;19;20074;-79
2023/06/01 06:08:38;;;;;;;17.38;7.20;;;;;;;12.59;74.87;102630.13;6105599;19;20018;-80
2023/06/01 06:10:48;;;;;;;19.80;7.72;;;;;;;12.73;74.72;102635.97;6102482;19;20011;-80
2023/06/01 06:12:53;;;;;;;18.95;7.50;;;;;;;12.79;74.71;102633.19;6102359;19;20002;-79
2023/06/01 06:15:04;;;;;;;20.55;8.23;;;;;;;12.82;74.62;102634.91;6104922;19;20040;-81
2023/06/01 06:17:10;;;;;;;22.60;7.97;;;;;;;12.87;74.33;102628.63;6102317;19;20399;-78
2023/06/01 06:19:15;;;;;;;17.10;8.15;;;;;;;12.95;73.95;102639.91;6106572;19;20040;-80
2023/06/01 06:21:24;;;;;;;16.92;8.00;;;;;;;12.98;73.63;102631.06;6104199;19;20074;-79
2023/06/01 06:24:00;;;;;;;17.92;7.10;;;;;;;13.04;73.40;102628.28;6106907;19;20018;-79
2023/06/01 06:26:10;;;;;;;18.13;7.72;;;;;;;13.08;73.29;102629.06;6104528;19;20332;-79
2023/06/01 06:28:18;;;;;;;18.58;8.48;;;;;;;13.15;73.32;102620.09;6107986;19;20014;-80
2023/06/01 06:30:27;;;;;;;19.58;8.00;;;;;;;13.29;73.17;102614.53;6106560;19;20364;-79
2023/06/01 06:32:36;;;;;;;18.42;8.13;;;;;;;13.38;72.89;102620.47;6103617;19;20011;-79
2023/06/01 06:34:41;;;;;;;21.30;8.93;;;;;;;13.43;73.11;102622.13;6106092;19;20265;-80
2023/06/01 06:36:46;;;;;;;19.60;8.30;;;;;;;13.43;72.93;102616.84;6107709;19;20485;-80
2023/06/01 06:38:53;;;;;;;19.48;8.00;;;;;;;13.59;72.49;102619.09;6108374;19;20635;-78
2023/06/01 06:41:04;;;;;;;18.55;7.97;;;;;;;13.60;72.24;102622.59;6101219;19;20014;-78
2023/06/01 06:43:19;;;;;;;21.05;9.15;;;;;;;13.56;72.03;102629.75;6099192;19;20482;-77
2023/06/01 06:45:27;;;;;;;20.15;9.50;;;;;;;13.71;71.69;102628.47;6096316;19;20002;-78
2023/06/01 06:47:35;;;;;;;19.83;8.70;;;;;;;13.82;71.35;102620.28;6100252;19;20013;-78
2023/06/01 06:49:48;;;;;;;19.17;8.45;;;;;;;14.19;71.32;102629.88;6104969;19;20557;-78
2023/06/01 06:51:56;;;;;;;22.58;9.25;;;;;;;14.35;70.00;102636.50;6105811;19;20413;-78
2023/06/01 06:54:05;;;;;;;18.73;9.13;;;;;;;14.31;69.60;102626.91;6103965;19;20369;-78
2023/06/01 06:56:13;;;;;;;20.70;8.02;;;;;;;14.24;69.37;102638.56;6097325;19;20013;-77
2023/06/01 06:58:26;;;;;;;18.58;8.38;;;;;;;14.15;70.04;102634.38;6098376;19;20015;-78
2023/06/01 07:00:35;;;;;;;20.70;9.57;;;;;;;14.34;69.33;102640.03;6106643;19;20018;-79
2023/06/01 07:02:40;;;;;;;20.70;8.77;;;;;;;14.45;69.53;102640.59;6109189;19;20418;-77
2023/06/01 07:04:48;;;;;;;17.88;8.95;;;;;;;14.36;69.05;102640.00;6114055;19;20074;-77
2023/06/01 07:06:54;;;;;;;20.80;10.30;;;;;;;14.45;69.76;102642.38;6112793;19;20073;-78
2023/06/01 07:09:01;;;;;;;21.85;9.95;;;;;;;14.39;69.14;102638.13;6106147;19;20016;-78
2023/06/01 07:11:07;;;;;;;24.00;10.05;;;;;;;14.49;69.53;102638.75;6103269;19;20019;-77
2023/06/01 07:13:15;;;;;;;23.58;9.60;;;;;;;14.61;69.07;102640.22;6104136;19;20014;-79
2023/06/01 07:15:32;;;;;;;20.63;8.23;;;;;;;14.59;69.24;102636.75;6102861;19;20019;-79
2023/06/01 07:17:37;;;;;;;21.20;9.02;;;;;;;14.60;68.92;102635.84;6097153;19;20010;-78
2023/06/01 07:19:44;;;;;;;22.13;9.32;;;;;;;14.60;68.99;102642.00;6098107;19;20511;-78
2023/06/01 07:21:49;;;;;;;19.20;8.90;;;;;;;14.62;69.32;102644.59;6101907;19;20046;-78
2023/06/01 07:23:55;;;;;;;23.08;9.45;;;;;;;14.61;69.32;102640.22;6098244;19;20121;-78
2023/06/01 07:26:01;;;;;;;21.25;9.93;;;;;;;14.71;68.96;102639.03;6102154;19;20010;-79
2023/06/01 07:28:12;;;;;;;20.50;9.77;;;;;;;14.82;68.22;102636.06;6099239;19;20044;-79
2023/06/01 07:30:18;;;;;;;20.35;9.07;;;;;;;14.79;67.95;102634.38;6094708;19;20035;-77
2023/06/01 07:32:31;;;;;;;19.65;9.20;;;;;;;14.83;67.28;102643.13;6098593;19;20003;-76
2023/06/01 07:34:50;;;;;;;19.40;9.05;;;;;;;14.96;66.83;102643.63;6103147;19;20017;-79
2023/06/01 07:37:07;;;;;;;14.55;8.20;;;;;;;15.08;66.14;102644.09;6103846;19;20398;-80
2023/06/01 07:39:21;;;;;;;15.73;8.27;;;;;;;15.24;65.48;102644.47;6096613;19;20010;-79
2023/06/01 07:41:31;;;;;;;20.58;8.30;;;;;;;15.47;65.63;102641.13;6081269;19;20027;-80
2023/06/01 07:43:39;;;;;;;18.80;8.13;;;;;;;15.51;65.04;102648.06;6095285;19;20010;-79
2023/06/01 07:45:45;;;;;;;17.10;7.80;;;;;;;15.37;64.40;102639.66;6100784;19;20031;-79
2023/06/01 07:47:56;;;;;;;25.25;8.90;;;;;;;15.36;64.55;102644.09;6088860;19;20018;-81
2023/06/01 07:50:02;;;;;;;16.40;8.43;;;;;;;15.34;64.42;102643.28;6102750;19;20053;-81
2023/06/01 07:52:08;;;;;;;15.88;8.15;;;;;;;15.28;64.09;102635.53;6098990;19;20023;-81
2023/06/01 07:54:20;;;;;;;19.10;8.55;;;;;;;15.36;63.87;102645.91;6077822;19;20020;-81
2023/06/01 07:56:26;;;;;;;19.20;8.48;;;;;;;15.19;64.40;102649.06;6102347;19;20003;-78
2023/06/01 07:58:44;;;;;;;18.88;8.73;;;;;;;15.45;64.25;102648.25;6071616;19;20004;-78
2023/06/01 08:00:52;;;;;;;18.30;7.82;;;;;;;15.30;63.61;102640.81;6096907;19;20363;-78
2023/06/01 08:03:06;;;;;;;15.68;7.35;;;;;;;15.58;63.89;102644.28;6101371;19;20010;-76
2023/06/01 08:05:14;;;;;;;15.48;6.95;;;;;;;15.40;64.15;102646.66;6096762;19;20011;-77
2023/06/01 08:07:30;;;;;;;16.48;7.90;;;;;;;15.73;63.68;102647.38;6102105;19;20042;-78
2023/06/01 08:09:37;;;;;;;21.17;7.80;;;;;;;15.52;63.20;102643.63;6098625;19;20499;-77
2023/06/01 08:11:42;;;;;;;16.45;7.20;;;;;;;15.53;63.01;102645.34;6101662;19;20044;-77
2023/06/01 08:13:49;;;;;;;17.45;7.85;;;;;;;16.63;62.04;102638.03;6100317;19;20958;-77
2023/06/01 08:15:55;;;;;;;18.30;7.43;;;;;;;16.77;60.73;102632.19;6099152;19;20014;-78
2023/06/01 08:18:07;;;;;;;19.08;7.60;;;;;;;17.23;59.57;102633.09;6091300;19;20463;-77
2023/06/01 08:20:21;;;;;;;16.38;7.38;;;;;;;17.41;57.89;102628.84;6093037;19;20043;-77
2023/06/01 08:22:33;;;;;;;14.00;7.65;;;;;;;17.49;57.63;102624.94;6098966;19;20009;-79
2023/06/01 08:24:47;;;;;;;14.63;7.68;;;;;;;17.34;57.51;102628.22;6102525;19;20035;-78
2023/06/01 08:26:59;;;;;;;16.77;7.63;;;;;;;17.82;57.30;102616.50;6099161;19;20055;-78
2023/06/01 08:29:07;;;;;;;15.60;8.18;;;;;;;17.81;58.04;102622.75;6103411;19;20007;-78
2023/06/01 08:31:18;;;;;;;14.45;7.07;;;;;;;17.57;56.68;102629.06;6102432;19;20021;-79
2023/06/01 08:33:33;;;;;;;12.70;6.88;;;;;;;17.42;57.15;102630.56;6100397;19;20035;-79
2023/06/01 08:35:41;;;;;;;14.77;7.00;;;;;;;17.05;57.30;102627.56;6079807;19;20006;-79
2023/06/01 08:37:53;;;;;;;16.05;7.30;;;;;;;18.08;56.60;102622.50;6100843;19;20023;-79
2023/06/01 08:40:03;;;;;;;14.80;6.35;;;;;;;18.45;53.88;102628.84;6083938;19;20074;-77
2023/06/01 08:42:17;;;;;;;17.30;6.63;;;;;;;18.39;54.18;102629.97;6102346;19;20276;-77
2023/06/01 08:44:29;;;;;;;12.60;6.53;;;;;;;18.58;53.51;102630.00;6107495;19;20010;-81
2023/06/01 08:46:37;;;;;;;15.07;6.85;;;;;;;18.26;53.39;102626.13;6091017;19;20019;-81
2023/06/01 08:48:46;;;;;;;16.35;7.35;;;;;;;18.29;54.06;102616.22;6107781;19;20003;-81
2023/06/01 08:50:55;;;;;;;16.13;6.95;;;;;;;18.60;53.33;102631.66;6083163;19;20070;-81
2023/06/01 08:53:08;;;;;;;14.98;7.97;;;;;;;18.90;53.19;102630.34;6097961;19;20035;-79
2023/06/01 08:55:17;;;;;;;15.27;7.60;;;;;;;19.46;52.36;102616.94;6099337;19;20027;-80
2023/06/01 08:57:22;;;;;;;16.30;7.70;;;;;;;19.61;50.98;102615.31;6102770;19;20040;-82
2023/06/01 08:59:38;;;;;;;13.90;6.55;;;;;;;19.34;50.93;102620.22;6096792;19;20014;-78
2023/06/01 09:01:49;;;;;;;14.68;6.95;;;;;;;19.30;50.48;102608.84;6096468;19;20578;-79
2023/06/01 09:04:01;;;;;;;12.20;7.43;;;;;;;19.66;49.54;102610.63;6098741;19;20494;-78
2023/06/01 09:06:08;;;;;;;16.08;7.32;;;;;;;19.52;49.85;102602.44;6094106;19;20010;-77
2023/06/01 09:08:15;;;;;;;15.75;8.82;;;;;;;19.53;49.53;102610.34;6100128;19;20014;-79
2023/06/01 09:10:25;;;;;;;14.98;7.32;;;;;;;19.84;49.17;102602.66;6100537;19;20354;-81
2023/06/01 09:12:44;;;;;;;13.48;7.22;;;;;;;19.53;50.02;102612.16;6074216;19;19999;-78
2023/06/01 09:14:49;;;;;;;13.25;6.68;;;;;;;19.78;49.63;102605.63;6091832;19;20050;-79
2023/06/01 09:16:58;;;;;;;11.55;6.55;;;;;;;20.08;49.45;102604.03;6092990;19;20074;-79
2023/06/01 09:19:12;;;;;;;14.23;8.27;;;;;;;19.87;49.28;102602.47;6094990;19;20018;-79
2023/06/01 09:21:19;;;;;;;13.95;7.72;;;;;;;20.30;48.67;102597.53;6102489;19;20039;-80
2023/06/01 09:23:28;;;;;;;13.68;6.88;;;;;;;19.85;48.19;102586.56;6094400;19;19999;-78
2023/06/01 09:25:35;;;;;;;14.93;7.60;;;;;;;20.51;47.89;102587.50;6097571;19;20010;-79
2023/06/01 09:27:49;;;;;;;15.23;7.32;;;;;;;20.14;47.91;102585.03;6103277;19;20016;-79
2023/06/01 09:30:20;;;;;;;15.48;7.40;;;;;;;20.41;47.71;102583.63;6097473;19;20009;-79
2023/06/01 09:32:29;;;;;;;14.32;7.80;;;;;;;19.62;48.94;102597.53;6081536;19;20085;-81
2023/06/01 09:34:48;;;;;;;14.07;7.72;;;;;;;19.60;49.07;102594.91;6097319;19;20658;-79
2023/06/01 09:37:07;;;;;;;15.43;7.38;;;;;;;20.00;47.76;102592.88;6102293;19;20011;-79
2023/06/01 09:39:17;;;;;;;14.40;7.90;;;;;;;18.77;50.58;102587.44;6096883;19;20014;-78
2023/06/01 09:41:25;;;;;;;14.38;7.75;;;;;;;18.74;50.62;102577.75;6096795;19;20007;-79
2023/06/01 09:43:38;;;;;;;13.32;7.32;;;;;;;19.41;50.92;102589.66;6064401;19;20019;-78
2023/06/01 09:45:46;;;;;;;18.33;8.23;;;;;;;20.03;49.33;102584.72;6082726;19;23436;-79
2023/06/01 09:47:57;;;;;;;13.23;7.07;;;;;;;20.20;48.14;102585.66;6100689;19;20038;-78
2023/06/01 09:50:13;;;;;;;22.52;11.20;;;;;;;20.01;47.46;102583.97;6101953;19;20010;-83
2023/06/01 09:52:24;;;;;;;16.85;6.90;;;;;;;20.51;47.74;102577.72;6099423;19;20003;-83
2023/06/01 09:54:40;;;;;;;13.23;6.53;;;;;;;20.30;47.62;102589.53;6104868;19;20036;-84
2023/06/01 09:57:01;;;;;;;13.75;7.20;;;;;;;20.83;46.82;102583.09;6106175;19;20081;-81
2023/06/01 09:59:18;;;;;;;12.35;7.15;;;;;;;20.94;45.66;102566.47;6104342;19;20017;-83
2023/06/01 10:01:28;;;;;;;13.25;6.70;;;;;;;20.55;47.05;102581.94;6107668;19;20439;-81